sensor_id;sensor_type;location;lat;lon;timestamp;P1;durP1;ratioP1;P2;durP2;ratioP2
74495;SDS011;62979;55.720;37.606;2022-11-15T00:00:47;0.45;;;0.28;;
74495;SDS011;62979;55.720;37.606;2022-11-15T00:03:15;2.03;;;1.13;;
74495;SDS011;62979;55.720;37.606;2022-11-15T00:08:10;0.88;;;0.88;;
74495;SDS011;62979;55.720;37.606;2022-11-15T00:10:37;2.72;;;0.75;;
74495;SDS011;62979;55.720;37.606;2022-11-15T00:13:07;1.23;;;0.80;;
74495;SDS011;62979;55.720;37.606;2022-11-15T00:15:36;0.70;;;0.50;;
74495;SDS011;62979;55.720;37.606;2022-11-15T00:18:04;0.80;;;0.60;;
74495;SDS011;62979;55.720;37.606;2022-11-15T00:20:33;1.48;;;0.90;;
74495;SDS011;62979;55.720;37.606;2022-11-15T00:23:00;1.33;;;0.85;;
74495;SDS011;62979;55.720;37.606;2022-11-15T00:25:29;4.20;;;1.00;;
74495;SDS011;62979;55.720;37.606;2022-11-15T00:27:57;1.92;;;1.17;;
74495;SDS011;62979;55.720;37.606;2022-11-15T00:30:26;1.65;;;0.77;;
74495;SDS011;62979;55.720;37.606;2022-11-15T00:32:54;2.42;;;0.98;;
74495;SDS011;62979;55.720;37.606;2022-11-15T00:35:21;1.58;;;1.23;;
74495;SDS011;62979;55.720;37.606;2022-11-15T00:37:48;1.52;;;1.27;;
74495;SDS011;62979;55.720;37.606;2022-11-15T00:40:15;1.10;;;1.10;;
74495;SDS011;62979;55.720;37.606;2022-11-15T00:42:42;2.60;;;0.85;;
74495;SDS011;62979;55.720;37.606;2022-11-15T00:45:09;5.80;;;0.95;;
74495;SDS011;62979;55.720;37.606;2022-11-15T00:47:38;1.05;;;0.90;;
74495;SDS011;62979;55.720;37.606;2022-11-15T00:52:32;1.13;;;1.02;;
74495;SDS011;62979;55.720;37.606;2022-11-15T00:54:59;3.38;;;1.27;;
74495;SDS011;62979;55.720;37.606;2022-11-15T00:57:26;1.45;;;1.27;;
74495;SDS011;62979;55.720;37.606;2022-11-15T00:59:53;1.38;;;1.27;;
74495;SDS011;62979;55.720;37.606;2022-11-15T01:02:20;1.27;;;1.17;;
74495;SDS011;62979;55.720;37.606;2022-11-15T01:04:49;3.60;;;0.30;;
74495;SDS011;62979;55.720;37.606;2022-11-15T01:09:43;5.32;;;1.08;;
74495;SDS011;62979;55.720;37.606;2022-11-15T01:12:10;1.70;;;0.82;;
74495;SDS011;62979;55.720;37.606;2022-11-15T01:14:37;1.80;;;1.00;;
74495;SDS011;62979;55.720;37.606;2022-11-15T01:17:04;0.68;;;0.22;;
74495;SDS011;62979;55.720;37.606;2022-11-15T01:19:31;1.80;;;0.80;;
74495;SDS011;62979;55.720;37.606;2022-11-15T01:22:00;0.82;;;0.73;;
74495;SDS011;62979;55.720;37.606;2022-11-15T01:24:27;4.47;;;1.55;;
74495;SDS011;62979;55.720;37.606;2022-11-15T01:26:54;0.90;;;0.90;;
74495;SDS011;62979;55.720;37.606;2022-11-15T01:29:21;1.88;;;0.63;;
74495;SDS011;62979;55.720;37.606;2022-11-15T01:31:48;1.23;;;1.08;;
74495;SDS011;62979;55.720;37.606;2022-11-15T01:34:16;1.75;;;1.20;;
74495;SDS011;62979;55.720;37.606;2022-11-15T01:36:43;1.38;;;0.45;;
74495;SDS011;62979;55.720;37.606;2022-11-15T01:39:11;3.58;;;1.17;;
74495;SDS011;62979;55.720;37.606;2022-11-15T01:47:10;1.95;;;0.95;;
74495;SDS011;62979;55.720;37.606;2022-11-15T01:49:49;1.92;;;1.17;;
74495;SDS011;62979;55.720;37.606;2022-11-15T01:52:23;2.35;;;1.27;;
74495;SDS011;62979;55.720;37.606;2022-11-15T01:54:55;3.38;;;1.23;;
74495;SDS011;62979;55.720;37.606;2022-11-15T01:57:29;1.20;;;1.05;;
74495;SDS011;62979;55.720;37.606;2022-11-15T01:59:56;2.72;;;0.70;;
74495;SDS011;62979;55.720;37.606;2022-11-15T02:02:28;2.13;;;1.13;;
74495;SDS011;62979;55.720;37.606;2022-11-15T02:04:55;1.20;;;1.05;;
74495;SDS011;62979;55.720;37.606;2022-11-15T02:07:22;1.42;;;1.15;;
74495;SDS011;62979;55.720;37.606;2022-11-15T02:09:49;3.63;;;1.58;;
74495;SDS011;62979;55.720;37.606;2022-11-15T02:12:21;1.35;;;0.88;;
74495;SDS011;62979;55.720;37.606;2022-11-15T02:14:49;2.13;;;1.42;;
74495;SDS011;62979;55.720;37.606;2022-11-15T02:17:28;2.97;;;0.57;;
74495;SDS011;62979;55.720;37.606;2022-11-15T02:26:37;1.33;;;0.25;;
74495;SDS011;62979;55.720;37.606;2022-11-15T02:33:03;2.47;;;1.67;;
74495;SDS011;62979;55.720;37.606;2022-11-15T02:35:48;1.50;;;0.98;;
74495;SDS011;62979;55.720;37.606;2022-11-15T02:38:26;4.55;;;1.70;;
74495;SDS011;62979;55.720;37.606;2022-11-15T02:41:07;4.43;;;1.45;;
74495;SDS011;62979;55.720;37.606;2022-11-15T02:43:40;1.13;;;0.93;;
74495;SDS011;62979;55.720;37.606;2022-11-15T02:46:26;2.08;;;1.08;;
74495;SDS011;62979;55.720;37.606;2022-11-15T02:49:19;5.00;;;0.82;;
74495;SDS011;62979;55.720;37.606;2022-11-15T02:51:49;3.80;;;1.40;;
74495;SDS011;62979;55.720;37.606;2022-11-15T02:54:21;3.53;;;1.23;;
74495;SDS011;62979;55.720;37.606;2022-11-15T02:56:51;2.35;;;0.98;;
74495;SDS011;62979;55.720;37.606;2022-11-15T02:59:33;1.83;;;1.23;;
74495;SDS011;62979;55.720;37.606;2022-11-15T03:02:35;4.38;;;1.25;;
74495;SDS011;62979;55.720;37.606;2022-11-15T03:05:18;3.47;;;1.58;;
74495;SDS011;62979;55.720;37.606;2022-11-15T03:07:57;4.18;;;1.35;;
74495;SDS011;62979;55.720;37.606;2022-11-15T03:10:37;3.13;;;2.85;;
74495;SDS011;62979;55.720;37.606;2022-11-15T03:13:15;3.05;;;1.13;;
74495;SDS011;62979;55.720;37.606;2022-11-15T03:15:53;1.50;;;0.55;;
74495;SDS011;62979;55.720;37.606;2022-11-15T03:18:32;2.13;;;0.73;;
74495;SDS011;62979;55.720;37.606;2022-11-15T03:21:04;1.63;;;0.45;;
74495;SDS011;62979;55.720;37.606;2022-11-15T03:23:36;1.75;;;0.20;;
74495;SDS011;62979;55.720;37.606;2022-11-15T03:26:06;3.40;;;0.52;;
74495;SDS011;62979;55.720;37.606;2022-11-15T03:28:39;3.88;;;1.50;;
74495;SDS011;62979;55.720;37.606;2022-11-15T03:31:13;3.58;;;1.58;;
74495;SDS011;62979;55.720;37.606;2022-11-15T03:34:13;4.35;;;1.27;;
74495;SDS011;62979;55.720;37.606;2022-11-15T03:36:51;5.57;;;1.52;;
74495;SDS011;62979;55.720;37.606;2022-11-15T03:39:19;2.08;;;1.27;;
74495;SDS011;62979;55.720;37.606;2022-11-15T03:41:48;1.52;;;1.30;;
74495;SDS011;62979;55.720;37.606;2022-11-15T03:44:31;1.92;;;0.77;;
74495;SDS011;62979;55.720;37.606;2022-11-15T03:47:11;1.67;;;1.58;;
74495;SDS011;62979;55.720;37.606;2022-11-15T03:49:46;1.92;;;1.13;;
74495;SDS011;62979;55.720;37.606;2022-11-15T03:52:19;3.42;;;0.82;;
74495;SDS011;62979;55.720;37.606;2022-11-15T03:54:48;1.45;;;0.60;;
74495;SDS011;62979;55.720;37.606;2022-11-15T03:57:19;2.30;;;0.95;;
74495;SDS011;62979;55.720;37.606;2022-11-15T03:59:46;2.28;;;1.98;;
74495;SDS011;62979;55.720;37.606;2022-11-15T04:02:13;1.38;;;0.98;;
74495;SDS011;62979;55.720;37.606;2022-11-15T04:04:40;7.50;;;0.40;;
74495;SDS011;62979;55.720;37.606;2022-11-15T04:07:09;3.00;;;1.40;;
74495;SDS011;62979;55.720;37.606;2022-11-15T04:12:24;0.93;;;0.93;;
74495;SDS011;62979;55.720;37.606;2022-11-15T04:14:57;3.35;;;1.58;;
74495;SDS011;62979;55.720;37.606;2022-11-15T04:17:38;1.98;;;1.38;;
74495;SDS011;62979;55.720;37.606;2022-11-15T04:20:09;4.63;;;1.10;;
74495;SDS011;62979;55.720;37.606;2022-11-15T04:22:57;2.58;;;1.30;;
74495;SDS011;62979;55.720;37.606;2022-11-15T04:25:44;2.28;;;1.30;;
74495;SDS011;62979;55.720;37.606;2022-11-15T04:28:15;4.03;;;1.10;;
74495;SDS011;62979;55.720;37.606;2022-11-15T04:30:42;4.43;;;1.25;;
74495;SDS011;62979;55.720;37.606;2022-11-15T04:33:09;3.22;;;1.65;;
74495;SDS011;62979;55.720;37.606;2022-11-15T04:35:36;1.85;;;0.70;;
74495;SDS011;62979;55.720;37.606;2022-11-15T04:38:06;1.80;;;1.17;;
74495;SDS011;62979;55.720;37.606;2022-11-15T04:40:34;1.83;;;0.47;;
74495;SDS011;62979;55.720;37.606;2022-11-15T04:43:01;2.40;;;0.82;;
74495;SDS011;62979;55.720;37.606;2022-11-15T04:45:28;3.47;;;1.40;;
74495;SDS011;62979;55.720;37.606;2022-11-15T04:47:56;3.67;;;1.15;;
74495;SDS011;62979;55.720;37.606;2022-11-15T04:50:23;3.83;;;1.90;;
74495;SDS011;62979;55.720;37.606;2022-11-15T04:52:50;3.20;;;0.93;;
74495;SDS011;62979;55.720;37.606;2022-11-15T04:55:20;4.30;;;0.50;;
74495;SDS011;62979;55.720;37.606;2022-11-15T04:57:47;2.38;;;0.55;;
74495;SDS011;62979;55.720;37.606;2022-11-15T05:00:23;4.75;;;0.47;;
74495;SDS011;62979;55.720;37.606;2022-11-15T05:02:50;5.03;;;1.50;;
74495;SDS011;62979;55.720;37.606;2022-11-15T05:05:35;5.00;;;2.13;;
74495;SDS011;62979;55.720;37.606;2022-11-15T05:08:02;3.78;;;1.58;;
74495;SDS011;62979;55.720;37.606;2022-11-15T05:10:30;1.67;;;1.35;;
74495;SDS011;62979;55.720;37.606;2022-11-15T05:12:57;4.57;;;1.75;;
74495;SDS011;62979;55.720;37.606;2022-11-15T05:15:24;3.42;;;1.23;;
74495;SDS011;62979;55.720;37.606;2022-11-15T05:17:56;6.30;;;2.35;;
74495;SDS011;62979;55.720;37.606;2022-11-15T05:20:25;2.53;;;2.00;;
74495;SDS011;62979;55.720;37.606;2022-11-15T05:22:52;7.25;;;1.00;;
74495;SDS011;62979;55.720;37.606;2022-11-15T05:25:20;3.85;;;2.22;;
74495;SDS011;62979;55.720;37.606;2022-11-15T05:27:48;4.40;;;1.02;;
74495;SDS011;62979;55.720;37.606;2022-11-15T05:30:15;2.13;;;1.42;;
74495;SDS011;62979;55.720;37.606;2022-11-15T05:32:43;3.15;;;1.60;;
74495;SDS011;62979;55.720;37.606;2022-11-15T05:35:12;3.30;;;1.00;;
74495;SDS011;62979;55.720;37.606;2022-11-15T05:37:46;4.68;;;0.63;;
74495;SDS011;62979;55.720;37.606;2022-11-15T05:40:14;3.60;;;1.73;;
74495;SDS011;62979;55.720;37.606;2022-11-15T05:42:42;1.60;;;0.70;;
74495;SDS011;62979;55.720;37.606;2022-11-15T05:45:11;2.53;;;0.60;;
74495;SDS011;62979;55.720;37.606;2022-11-15T05:47:38;8.65;;;1.83;;
74495;SDS011;62979;55.720;37.606;2022-11-15T05:50:07;3.70;;;2.30;;
74495;SDS011;62979;55.720;37.606;2022-11-15T05:52:38;2.40;;;1.65;;
74495;SDS011;62979;55.720;37.606;2022-11-15T05:55:06;4.20;;;0.82;;
74495;SDS011;62979;55.720;37.606;2022-11-15T05:57:35;4.57;;;0.98;;
74495;SDS011;62979;55.720;37.606;2022-11-15T06:00:03;2.05;;;1.13;;
74495;SDS011;62979;55.720;37.606;2022-11-15T06:02:34;5.53;;;1.70;;
74495;SDS011;62979;55.720;37.606;2022-11-15T06:07:28;2.13;;;1.38;;
74495;SDS011;62979;55.720;37.606;2022-11-15T06:09:58;2.17;;;1.30;;
74495;SDS011;62979;55.720;37.606;2022-11-15T06:12:25;3.80;;;0.70;;
74495;SDS011;62979;55.720;37.606;2022-11-15T06:14:52;3.92;;;1.20;;
74495;SDS011;62979;55.720;37.606;2022-11-15T06:17:19;2.05;;;1.75;;
74495;SDS011;62979;55.720;37.606;2022-11-15T06:19:47;3.92;;;1.75;;
74495;SDS011;62979;55.720;37.606;2022-11-15T06:22:14;7.85;;;1.83;;
74495;SDS011;62979;55.720;37.606;2022-11-15T06:24:41;1.70;;;1.58;;
74495;SDS011;62979;55.720;37.606;2022-11-15T06:27:09;4.00;;;1.05;;
74495;SDS011;62979;55.720;37.606;2022-11-15T06:29:37;9.05;;;2.50;;
74495;SDS011;62979;55.720;37.606;2022-11-15T06:32:04;7.35;;;1.90;;
74495;SDS011;62979;55.720;37.606;2022-11-15T06:34:31;2.90;;;1.73;;
74495;SDS011;62979;55.720;37.606;2022-11-15T06:36:59;6.28;;;2.00;;
74495;SDS011;62979;55.720;37.606;2022-11-15T06:39:26;2.17;;;1.80;;
74495;SDS011;62979;55.720;37.606;2022-11-15T06:41:53;3.22;;;1.75;;
74495;SDS011;62979;55.720;37.606;2022-11-15T06:44:20;8.75;;;1.88;;
74495;SDS011;62979;55.720;37.606;2022-11-15T06:46:47;9.20;;;2.10;;
74495;SDS011;62979;55.720;37.606;2022-11-15T06:49:14;8.07;;;4.18;;
74495;SDS011;62979;55.720;37.606;2022-11-15T06:51:41;6.47;;;1.90;;
74495;SDS011;62979;55.720;37.606;2022-11-15T06:54:10;4.63;;;1.38;;
74495;SDS011;62979;55.720;37.606;2022-11-15T06:56:37;2.28;;;1.85;;
74495;SDS011;62979;55.720;37.606;2022-11-15T06:59:04;5.47;;;2.30;;
74495;SDS011;62979;55.720;37.606;2022-11-15T07:01:31;4.25;;;1.70;;
74495;SDS011;62979;55.720;37.606;2022-11-15T07:03:58;4.88;;;3.17;;
74495;SDS011;62979;55.720;37.606;2022-11-15T07:06:25;6.68;;;1.83;;
74495;SDS011;62979;55.720;37.606;2022-11-15T07:08:52;5.53;;;2.13;;
74495;SDS011;62979;55.720;37.606;2022-11-15T07:11:20;3.97;;;2.45;;
74495;SDS011;62979;55.720;37.606;2022-11-15T07:13:47;3.05;;;0.77;;
74495;SDS011;62979;55.720;37.606;2022-11-15T07:16:14;6.13;;;2.28;;
74495;SDS011;62979;55.720;37.606;2022-11-15T07:18:41;2.38;;;1.27;;
74495;SDS011;62979;55.720;37.606;2022-11-15T07:21:09;5.75;;;2.67;;
74495;SDS011;62979;55.720;37.606;2022-11-15T07:23:37;3.63;;;1.02;;
74495;SDS011;62979;55.720;37.606;2022-11-15T07:26:05;6.32;;;2.63;;
74495;SDS011;62979;55.720;37.606;2022-11-15T07:28:35;1.98;;;1.10;;
74495;SDS011;62979;55.720;37.606;2022-11-15T07:31:02;3.92;;;2.33;;
74495;SDS011;62979;55.720;37.606;2022-11-15T07:33:30;8.60;;;1.73;;
74495;SDS011;62979;55.720;37.606;2022-11-15T07:35:58;2.88;;;0.95;;
74495;SDS011;62979;55.720;37.606;2022-11-15T07:38:27;5.40;;;1.42;;
74495;SDS011;62979;55.720;37.606;2022-11-15T07:40:55;5.30;;;2.17;;
74495;SDS011;62979;55.720;37.606;2022-11-15T07:43:24;5.18;;;2.65;;
74495;SDS011;62979;55.720;37.606;2022-11-15T07:45:54;5.57;;;1.00;;
74495;SDS011;62979;55.720;37.606;2022-11-15T07:48:21;6.95;;;2.05;;
74495;SDS011;62979;55.720;37.606;2022-11-15T07:50:49;6.28;;;2.25;;
74495;SDS011;62979;55.720;37.606;2022-11-15T07:53:16;5.80;;;2.30;;
74495;SDS011;62979;55.720;37.606;2022-11-15T07:55:43;6.47;;;2.60;;
74495;SDS011;62979;55.720;37.606;2022-11-15T07:58:11;4.57;;;0.82;;
74495;SDS011;62979;55.720;37.606;2022-11-15T08:00:38;5.75;;;2.05;;
74495;SDS011;62979;55.720;37.606;2022-11-15T08:03:07;3.03;;;2.03;;
74495;SDS011;62979;55.720;37.606;2022-11-15T08:05:37;8.63;;;2.55;;
74495;SDS011;62979;55.720;37.606;2022-11-15T08:08:05;3.13;;;1.92;;
74495;SDS011;62979;55.720;37.606;2022-11-15T08:10:34;5.30;;;2.45;;
74495;SDS011;62979;55.720;37.606;2022-11-15T08:13:02;4.40;;;1.83;;
74495;SDS011;62979;55.720;37.606;2022-11-15T08:15:32;4.07;;;1.92;;
74495;SDS011;62979;55.720;37.606;2022-11-15T08:18:02;3.80;;;2.28;;
74495;SDS011;62979;55.720;37.606;2022-11-15T08:20:32;5.10;;;2.03;;
74495;SDS011;62979;55.720;37.606;2022-11-15T08:23:00;5.40;;;2.22;;
74495;SDS011;62979;55.720;37.606;2022-11-15T08:25:30;4.68;;;2.40;;
74495;SDS011;62979;55.720;37.606;2022-11-15T08:28:00;3.17;;;2.55;;
74495;SDS011;62979;55.720;37.606;2022-11-15T08:30:30;7.93;;;2.03;;
74495;SDS011;62979;55.720;37.606;2022-11-15T08:33:02;7.80;;;2.25;;
74495;SDS011;62979;55.720;37.606;2022-11-15T08:35:29;6.75;;;2.17;;
74495;SDS011;62979;55.720;37.606;2022-11-15T08:37:58;5.28;;;1.75;;
74495;SDS011;62979;55.720;37.606;2022-11-15T08:42:52;4.78;;;1.77;;
74495;SDS011;62979;55.720;37.606;2022-11-15T08:45:19;7.70;;;2.92;;
74495;SDS011;62979;55.720;37.606;2022-11-15T08:47:46;5.55;;;2.10;;
74495;SDS011;62979;55.720;37.606;2022-11-15T08:50:14;5.20;;;2.40;;
74495;SDS011;62979;55.720;37.606;2022-11-15T08:55:10;7.68;;;2.53;;
74495;SDS011;62979;55.720;37.606;2022-11-15T08:57:37;5.68;;;2.70;;
74495;SDS011;62979;55.720;37.606;2022-11-15T09:00:05;4.07;;;2.65;;
74495;SDS011;62979;55.720;37.606;2022-11-15T09:02:33;4.30;;;2.85;;
74495;SDS011;62979;55.720;37.606;2022-11-15T09:05:00;6.28;;;2.25;;
74495;SDS011;62979;55.720;37.606;2022-11-15T09:07:27;6.93;;;2.65;;
74495;SDS011;62979;55.720;37.606;2022-11-15T09:09:55;7.50;;;2.90;;
74495;SDS011;62979;55.720;37.606;2022-11-15T09:12:24;8.45;;;2.97;;
74495;SDS011;62979;55.720;37.606;2022-11-15T09:14:51;5.00;;;3.60;;
74495;SDS011;62979;55.720;37.606;2022-11-15T09:17:18;6.18;;;3.30;;
74495;SDS011;62979;55.720;37.606;2022-11-15T09:19:45;6.28;;;3.55;;
74495;SDS011;62979;55.720;37.606;2022-11-15T09:22:12;5.05;;;2.40;;
74495;SDS011;62979;55.720;37.606;2022-11-15T09:24:39;7.15;;;2.58;;
74495;SDS011;62979;55.720;37.606;2022-11-15T09:27:06;4.35;;;2.10;;
74495;SDS011;62979;55.720;37.606;2022-11-15T09:29:34;4.75;;;2.58;;
74495;SDS011;62979;55.720;37.606;2022-11-15T09:32:01;7.72;;;2.90;;
74495;SDS011;62979;55.720;37.606;2022-11-15T09:34:29;3.75;;;1.70;;
74495;SDS011;62979;55.720;37.606;2022-11-15T09:36:56;11.88;;;1.92;;
74495;SDS011;62979;55.720;37.606;2022-11-15T09:39:23;7.22;;;2.60;;
74495;SDS011;62979;55.720;37.606;2022-11-15T09:41:51;3.97;;;0.93;;
74495;SDS011;62979;55.720;37.606;2022-11-15T09:44:56;4.28;;;2.20;;
74495;SDS011;62979;55.720;37.606;2022-11-15T09:47:50;6.00;;;1.50;;
74495;SDS011;62979;55.720;37.606;2022-11-15T09:51:01;5.00;;;2.50;;
74495;SDS011;62979;55.720;37.606;2022-11-15T09:56:20;2.22;;;1.67;;
74495;SDS011;62979;55.720;37.606;2022-11-15T09:58:53;6.65;;;2.38;;
74495;SDS011;62979;55.720;37.606;2022-11-15T10:01:36;8.65;;;2.15;;
74495;SDS011;62979;55.720;37.606;2022-11-15T10:04:16;3.45;;;2.00;;
74495;SDS011;62979;55.720;37.606;2022-11-15T10:06:46;2.95;;;1.52;;
74495;SDS011;62979;55.720;37.606;2022-11-15T10:09:23;4.30;;;2.90;;
74495;SDS011;62979;55.720;37.606;2022-11-15T10:11:58;3.47;;;1.77;;
74495;SDS011;62979;55.720;37.606;2022-11-15T10:14:26;3.33;;;1.58;;
74495;SDS011;62979;55.720;37.606;2022-11-15T10:20:23;4.25;;;1.52;;
74495;SDS011;62979;55.720;37.606;2022-11-15T10:22:54;4.80;;;1.98;;
74495;SDS011;62979;55.720;37.606;2022-11-15T10:25:26;5.60;;;2.00;;
74495;SDS011;62979;55.720;37.606;2022-11-15T10:27:56;5.75;;;1.95;;
74495;SDS011;62979;55.720;37.606;2022-11-15T10:30:31;4.88;;;2.20;;
74495;SDS011;62979;55.720;37.606;2022-11-15T10:33:10;4.95;;;1.77;;
74495;SDS011;62979;55.720;37.606;2022-11-15T10:35:46;7.63;;;2.28;;
74495;SDS011;62979;55.720;37.606;2022-11-15T10:38:13;4.00;;;2.08;;
74495;SDS011;62979;55.720;37.606;2022-11-15T10:40:40;5.82;;;2.58;;
74495;SDS011;62979;55.720;37.606;2022-11-15T10:43:14;5.32;;;3.10;;
74495;SDS011;62979;55.720;37.606;2022-11-15T10:45:44;3.63;;;2.25;;
74495;SDS011;62979;55.720;37.606;2022-11-15T10:48:26;4.97;;;1.65;;
74495;SDS011;62979;55.720;37.606;2022-11-15T10:50:53;5.22;;;2.30;;
74495;SDS011;62979;55.720;37.606;2022-11-15T10:53:23;5.97;;;2.55;;
74495;SDS011;62979;55.720;37.606;2022-11-15T10:55:57;3.20;;;2.50;;
74495;SDS011;62979;55.720;37.606;2022-11-15T10:58:31;7.32;;;2.90;;
74495;SDS011;62979;55.720;37.606;2022-11-15T11:03:57;8.07;;;3.00;;
74495;SDS011;62979;55.720;37.606;2022-11-15T11:06:26;6.40;;;2.42;;
74495;SDS011;62979;55.720;37.606;2022-11-15T11:08:56;5.78;;;2.45;;
74495;SDS011;62979;55.720;37.606;2022-11-15T11:11:43;5.85;;;2.20;;
74495;SDS011;62979;55.720;37.606;2022-11-15T11:14:13;4.00;;;1.85;;
74495;SDS011;62979;55.720;37.606;2022-11-15T11:16:52;7.63;;;2.25;;
74495;SDS011;62979;55.720;37.606;2022-11-15T11:19:33;6.38;;;2.20;;
74495;SDS011;62979;55.720;37.606;2022-11-15T11:22:20;5.95;;;3.97;;
74495;SDS011;62979;55.720;37.606;2022-11-15T11:25:11;9.25;;;2.75;;
74495;SDS011;62979;55.720;37.606;2022-11-15T11:27:57;7.03;;;2.10;;
74495;SDS011;62979;55.720;37.606;2022-11-15T11:30:43;6.05;;;2.90;;
74495;SDS011;62979;55.720;37.606;2022-11-15T11:33:27;4.35;;;1.42;;
74495;SDS011;62979;55.720;37.606;2022-11-15T11:36:04;5.38;;;2.55;;
74495;SDS011;62979;55.720;37.606;2022-11-15T11:38:51;9.65;;;2.90;;
74495;SDS011;62979;55.720;37.606;2022-11-15T11:41:36;11.80;;;3.22;;
74495;SDS011;62979;55.720;37.606;2022-11-15T11:44:28;6.40;;;2.53;;
74495;SDS011;62979;55.720;37.606;2022-11-15T11:47:10;6.85;;;3.03;;
74495;SDS011;62979;55.720;37.606;2022-11-15T11:49:43;9.48;;;3.72;;
74495;SDS011;62979;55.720;37.606;2022-11-15T11:52:20;3.63;;;1.92;;
74495;SDS011;62979;55.720;37.606;2022-11-15T11:54:56;5.25;;;2.45;;
74495;SDS011;62979;55.720;37.606;2022-11-15T11:57:39;7.65;;;3.15;;
74495;SDS011;62979;55.720;37.606;2022-11-15T12:00:15;6.22;;;2.30;;
74495;SDS011;62979;55.720;37.606;2022-11-15T12:02:49;5.57;;;2.05;;
74495;SDS011;62979;55.720;37.606;2022-11-15T12:05:30;6.07;;;2.28;;
74495;SDS011;62979;55.720;37.606;2022-11-15T12:08:09;3.45;;;3.00;;
74495;SDS011;62979;55.720;37.606;2022-11-15T12:10:53;6.35;;;2.75;;
74495;SDS011;62979;55.720;37.606;2022-11-15T12:13:35;3.47;;;1.10;;
74495;SDS011;62979;55.720;37.606;2022-11-15T12:16:05;6.28;;;1.52;;
74495;SDS011;62979;55.720;37.606;2022-11-15T12:18:47;4.40;;;2.35;;
74495;SDS011;62979;55.720;37.606;2022-11-15T12:21:20;7.60;;;2.15;;
74495;SDS011;62979;55.720;37.606;2022-11-15T12:24:01;3.95;;;2.10;;
74495;SDS011;62979;55.720;37.606;2022-11-15T12:26:35;7.18;;;1.98;;
74495;SDS011;62979;55.720;37.606;2022-11-15T12:29:11;7.05;;;1.90;;
74495;SDS011;62979;55.720;37.606;2022-11-15T12:31:48;8.43;;;2.42;;
74495;SDS011;62979;55.720;37.606;2022-11-15T12:40:24;2.70;;;2.47;;
74495;SDS011;62979;55.720;37.606;2022-11-15T12:43:01;5.25;;;2.70;;
74495;SDS011;62979;55.720;37.606;2022-11-15T12:54:51;5.07;;;2.08;;
74495;SDS011;62979;55.720;37.606;2022-11-15T12:57:29;3.38;;;1.80;;
74495;SDS011;62979;55.720;37.606;2022-11-15T13:03:19;7.55;;;2.13;;
74495;SDS011;62979;55.720;37.606;2022-11-15T13:05:56;5.35;;;2.70;;
74495;SDS011;62979;55.720;37.606;2022-11-15T13:08:39;7.10;;;1.92;;
74495;SDS011;62979;55.720;37.606;2022-11-15T13:17:25;5.00;;;3.03;;
74495;SDS011;62979;55.720;37.606;2022-11-15T13:20:14;10.13;;;4.13;;
74495;SDS011;62979;55.720;37.606;2022-11-15T13:22:49;5.18;;;3.20;;
74495;SDS011;62979;55.720;37.606;2022-11-15T13:28:42;13.95;;;4.15;;
74495;SDS011;62979;55.720;37.606;2022-11-15T13:34:03;8.55;;;4.90;;
74495;SDS011;62979;55.720;37.606;2022-11-15T13:36:55;12.75;;;4.05;;
74495;SDS011;62979;55.720;37.606;2022-11-15T13:39:27;7.22;;;3.97;;
74495;SDS011;62979;55.720;37.606;2022-11-15T13:41:56;7.75;;;3.80;;
74495;SDS011;62979;55.720;37.606;2022-11-15T13:44:24;5.80;;;2.88;;
74495;SDS011;62979;55.720;37.606;2022-11-15T13:47:04;8.75;;;1.95;;
74495;SDS011;62979;55.720;37.606;2022-11-15T13:49:38;12.07;;;3.70;;
74495;SDS011;62979;55.720;37.606;2022-11-15T13:52:07;11.23;;;3.22;;
74495;SDS011;62979;55.720;37.606;2022-11-15T13:54:40;10.88;;;4.13;;
74495;SDS011;62979;55.720;37.606;2022-11-15T13:57:13;10.80;;;4.28;;
74495;SDS011;62979;55.720;37.606;2022-11-15T13:59:46;8.80;;;4.82;;
74495;SDS011;62979;55.720;37.606;2022-11-15T14:02:19;5.05;;;2.33;;
74495;SDS011;62979;55.720;37.606;2022-11-15T14:04:55;9.38;;;4.10;;
74495;SDS011;62979;55.720;37.606;2022-11-15T14:07:27;4.93;;;4.22;;
74495;SDS011;62979;55.720;37.606;2022-11-15T14:09:55;12.65;;;3.50;;
74495;SDS011;62979;55.720;37.606;2022-11-15T14:12:24;9.98;;;3.95;;
74495;SDS011;62979;55.720;37.606;2022-11-15T14:14:55;9.18;;;3.80;;
74495;SDS011;62979;55.720;37.606;2022-11-15T14:17:35;11.23;;;5.65;;
74495;SDS011;62979;55.720;37.606;2022-11-15T14:20:26;6.15;;;2.70;;
74495;SDS011;62979;55.720;37.606;2022-11-15T14:22:58;7.20;;;2.70;;
74495;SDS011;62979;55.720;37.606;2022-11-15T14:25:27;4.85;;;2.20;;
74495;SDS011;62979;55.720;37.606;2022-11-15T14:28:09;7.40;;;3.17;;
74495;SDS011;62979;55.720;37.606;2022-11-15T14:30:41;6.55;;;2.60;;
74495;SDS011;62979;55.720;37.606;2022-11-15T14:33:23;9.05;;;3.72;;
74495;SDS011;62979;55.720;37.606;2022-11-15T14:35:54;8.15;;;2.22;;
74495;SDS011;62979;55.720;37.606;2022-11-15T14:38:23;4.15;;;2.97;;
74495;SDS011;62979;55.720;37.606;2022-11-15T14:40:51;5.63;;;3.88;;
74495;SDS011;62979;55.720;37.606;2022-11-15T14:43:21;9.65;;;2.95;;
74495;SDS011;62979;55.720;37.606;2022-11-15T14:45:48;9.27;;;4.32;;
74495;SDS011;62979;55.720;37.606;2022-11-15T14:48:15;7.93;;;3.13;;
74495;SDS011;62979;55.720;37.606;2022-11-15T14:50:43;8.82;;;2.72;;
74495;SDS011;62979;55.720;37.606;2022-11-15T14:53:11;7.60;;;2.47;;
74495;SDS011;62979;55.720;37.606;2022-11-15T14:55:41;6.18;;;2.92;;
74495;SDS011;62979;55.720;37.606;2022-11-15T14:58:08;7.45;;;3.67;;
74495;SDS011;62979;55.720;37.606;2022-11-15T15:00:38;4.75;;;2.78;;
74495;SDS011;62979;55.720;37.606;2022-11-15T15:03:07;6.75;;;2.75;;
74495;SDS011;62979;55.720;37.606;2022-11-15T15:05:35;10.77;;;3.60;;
74495;SDS011;62979;55.720;37.606;2022-11-15T15:08:06;9.90;;;5.40;;
74495;SDS011;62979;55.720;37.606;2022-11-15T15:10:35;6.97;;;4.65;;
74495;SDS011;62979;55.720;37.606;2022-11-15T15:13:05;6.07;;;3.45;;
74495;SDS011;62979;55.720;37.606;2022-11-15T15:15:41;10.50;;;4.97;;
74495;SDS011;62979;55.720;37.606;2022-11-15T15:18:08;10.45;;;4.22;;
74495;SDS011;62979;55.720;37.606;2022-11-15T15:20:36;6.25;;;3.40;;
74495;SDS011;62979;55.720;37.606;2022-11-15T15:23:10;8.20;;;3.13;;
74495;SDS011;62979;55.720;37.606;2022-11-15T15:25:42;6.57;;;2.65;;
74495;SDS011;62979;55.720;37.606;2022-11-15T15:30:38;6.07;;;1.75;;
74495;SDS011;62979;55.720;37.606;2022-11-15T15:33:05;5.97;;;2.50;;
74495;SDS011;62979;55.720;37.606;2022-11-15T15:35:32;4.57;;;2.53;;
74495;SDS011;62979;55.720;37.606;2022-11-15T15:38:01;4.28;;;3.10;;
74495;SDS011;62979;55.720;37.606;2022-11-15T15:40:31;6.38;;;3.10;;
74495;SDS011;62979;55.720;37.606;2022-11-15T15:42:59;7.72;;;4.03;;
74495;SDS011;62979;55.720;37.606;2022-11-15T15:45:26;10.45;;;2.80;;
74495;SDS011;62979;55.720;37.606;2022-11-15T15:47:54;5.40;;;3.35;;
74495;SDS011;62979;55.720;37.606;2022-11-15T15:50:23;5.45;;;2.15;;
74495;SDS011;62979;55.720;37.606;2022-11-15T15:52:54;5.97;;;3.15;;
74495;SDS011;62979;55.720;37.606;2022-11-15T15:55:24;6.43;;;3.47;;
74495;SDS011;62979;55.720;37.606;2022-11-15T15:57:53;7.22;;;2.72;;
74495;SDS011;62979;55.720;37.606;2022-11-15T16:00:21;4.28;;;3.80;;
74495;SDS011;62979;55.720;37.606;2022-11-15T16:02:50;5.57;;;3.20;;
74495;SDS011;62979;55.720;37.606;2022-11-15T16:05:18;8.13;;;2.75;;
74495;SDS011;62979;55.720;37.606;2022-11-15T16:07:46;4.93;;;3.58;;
74495;SDS011;62979;55.720;37.606;2022-11-15T16:10:15;8.65;;;2.58;;
74495;SDS011;62979;55.720;37.606;2022-11-15T16:12:47;6.03;;;3.33;;
74495;SDS011;62979;55.720;37.606;2022-11-15T16:15:17;5.03;;;3.45;;